Brutus, MI (49716)

5:11 AM EDT on May 07, 2015 (GMT -0400)
Alanson Swing Bridge | | Change Station
CLOSE
Current Station
Personal Weather Station
Location: Alanson, MI
Elevation: 597 ft
Nearby Weather Stations

Elev 597 ft 45.44 °N, 84.79 °W | Updated 37 seconds ago

Mostly Cloudy
Mostly Cloudy
50.8 °F
Feels Like 50.8 °F
N
0.0
Wind Variable Wind from NNE
Gusts 1.3 mph

Today
High -- | Low -- °F
--% Chance of Precip.
Yesterday
High -- | Low -- °F
Precip. -- in
6:18 AM 8:53 PM
Waning Gibbous, 89% visible
Pressure 30.11 in
Visibility 10.0 miles
Clouds Mostly Cloudy 12000 ft
Dew Point 46 °F
Humidity 82%
Rainfall 0.00 in
Snow Depth Not available.
UV 0 out of 12
Pollen 10.60 out of 12
Air Quality Not available.
Flu Activity Regional
METAR KPLN 070754Z AUTO 00000KT 10SM BKN120 09/07 A3011 RMK AO2 SLP195 T00890067

More Conditions Fewer Conditions

Pressure 30.11 in
Visibility 10.0 miles
Clouds Mostly Cloudy 12000 ft
Dew Point 46 °F
Humidity 82%
Rainfall 0.00 in
Snow Depth Not available.
UV 0 out of 12
Pollen 10.60 out of 12
Air Quality Not available.
Flu Activity Regional
METAR KPLN 070754Z AUTO 00000KT 10SM BKN120 09/07 A3011 RMK AO2 SLP195 T00890067

More Conditions Fewer Conditions

Nowcast | as of 5:00 am EDT on May 7, 2015

At 6 am...mostly clear. Temperature 55. Light winds. At 8 am...mostly clear. Temperature 56. Light winds. At 10 am...mostly clear. Temperature 62. Southwest winds 6 mph. At 12 PM...mostly clear. Temperature 68. Southwest winds 7 mph.

×

10-Day Weather Forecast

Almanac

Astronomy

May. 07, 2015 Rise Set
Actual Time
Civil Twilight
Nautical Twilight
Astronomical Twilight
Moon
Length of Visible Light
Length of Day
Tomorrow will be .
, % of the Moon is Illuminated

Today's Extremes

State Highs State Lows

Community

WunderPhotos

Upload Photos

1,819,133 photos uploaded!

WunderBlogs® & News

Nearby

Air Quality

  Air Quality AQ Index Pollutant
Not available.

Snow Depth

Station Depth Elevation

Earthquake Activity

City Distance Mag. Time & Date
Minimum magnitude displayed is 2.5.

Coastal Water Temperatures

Place Temperature

Stations

Nearby Weather Stations

Station Location Temp. Windchill Dew Point Humidity Wind Precip. Elev Updated Type